»·PEaware :: DAL2295 KSAN-KSLC

DAL2295 :: KSAN-KSLC

FLIGHT INFORMATION

Flight Status: Arrived
Operator:
Delta Air Lines
More flights by this operator :: More flights under this callsign
Pilot: Patricio R. (14780)
Aircraft: BOEING 737-200
(B732)
More flights by this aircraft type
Origin: KSAN San Diego Intl-Lindbergh
United States
Destination: KSLC Salt Lake City Intl
United States
More flights between these airports :: More routes between these airports
Route: BRDR7 JLI V208 TRM V514 TNP V538 GFS V514 BLD V21 MLF JAMMN5
File this flight plan on PilotEdge
Remarks:
Altitude:
(Current/Filed)
29,000ft
Speed:
(Current/Filed)
442kts
Departed: 29-Apr-18 11:20 AM
Arrived: 29-Apr-18 12:52 PM
Distance/Time
Traveled:
544nm/1:32
Distance/Time
To Go:
Arrived

Flight Plot

Page will automatically refresh every two minutes.

Flight plan parsing failed; only flown route is shown


Map Options




Map Legend


Flown Route
Filed Route
Departure Airport
Arrival Airport
Navaid (VOR, NDB)
Fix

Horizontal Profiles

Position Reports

Time Latitude Longitude Heading Altitude Ground
Speed
29-Apr-18 10:59 32.733808 -117.204558 94 21ft 0kts
29-Apr-18 11:00 32.733808 -117.204558 94 21ft 0kts
29-Apr-18 11:01 32.733808 -117.204558 94 21ft 0kts
29-Apr-18 11:02 32.733808 -117.204558 94 21ft 0kts
29-Apr-18 11:03 32.733808 -117.204558 94 21ft 0kts
29-Apr-18 11:04 32.733808 -117.204558 94 21ft 0kts
29-Apr-18 11:05 32.733808 -117.204558 94 21ft 0kts
29-Apr-18 11:06 32.733808 -117.204558 94 21ft 0kts
29-Apr-18 11:07 32.733808 -117.204558 94 21ft 0kts
29-Apr-18 11:08 32.733827 -117.204830 94 21ft 2kts
29-Apr-18 11:09 32.733770 -117.205447 46 18ft 2kts
29-Apr-18 11:10 32.733527 -117.205568 0 18ft 0kts
29-Apr-18 11:11 32.733527 -117.205568 0 18ft 0kts
29-Apr-18 11:12 32.734596 -117.205501 9 22ft 10kts
29-Apr-18 11:13 32.735195 -117.200740 106 20ft 16kts
29-Apr-18 11:14 32.733872 -117.195246 106 21ft 17kts
29-Apr-18 11:15 32.732465 -117.189399 107 22ft 19kts
29-Apr-18 11:16 32.730893 -117.182944 106 21ft 21kts
29-Apr-18 11:17 32.729467 -117.176766 80 22ft 3kts
29-Apr-18 11:18 32.730373 -117.176528 287 26ft 28kts
29-Apr-18 11:19 32.742705 -117.221067 288 1346ft 202kts
29-Apr-18 11:20 32.765513 -117.283428 289 4751ft 210kts
29-Apr-18 11:21 32.752355 -117.339780 196 7240ft 243kts
29-Apr-18 11:22 32.689116 -117.290556 134 9114ft 312kts
29-Apr-18 11:23 32.630493 -117.211757 121 10965ft 329kts
29-Apr-18 11:24 32.617581 -117.104578 93 12677ft 333kts
29-Apr-18 11:25 32.611123 -116.993422 93 14718ft 346kts
29-Apr-18 11:26 32.661362 -116.912828 2 16527ft 318kts
29-Apr-18 11:27 32.748807 -116.903541 358 18290ft 323kts
29-Apr-18 11:28 32.838922 -116.893222 358 19882ft 331kts
29-Apr-18 11:29 32.926412 -116.870828 8 21219ft 347kts
29-Apr-18 11:30 33.013108 -116.841452 9 22406ft 355kts
29-Apr-18 11:31 33.068136 -116.742849 94 23462ft 404kts
29-Apr-18 11:32 33.050430 -116.610488 86 24568ft 409kts
29-Apr-18 11:33 33.110420 -116.515966 14 25487ft 376kts
29-Apr-18 11:34 33.206722 -116.473512 13 26409ft 380kts
29-Apr-18 11:35 33.306299 -116.429971 12 27155ft 389kts
29-Apr-18 11:36 33.400091 -116.360193 28 27942ft 405kts
29-Apr-18 11:37 33.489775 -116.280880 30 28595ft 410kts
29-Apr-18 11:39 33.582164 -116.199801 30 28881ft 417kts
29-Apr-18 11:40 33.668919 -116.105241 40 28881ft 426kts
29-Apr-18 11:41 33.759941 -116.016506 32 28882ft 424kts
29-Apr-18 11:42 33.851023 -115.925421 34 28882ft 429kts
29-Apr-18 11:42 33.939345 -115.883777 14 28875ft 415kts
29-Apr-18 11:43 34.037477 -115.807626 31 28985ft 427kts
29-Apr-18 11:44 34.131835 -115.721670 31 28985ft 430kts
29-Apr-18 11:45 34.227257 -115.635403 31 28986ft 433kts
29-Apr-18 11:46 34.315968 -115.536166 27 28975ft 433kts
29-Apr-18 11:47 34.425271 -115.487411 11 28989ft 422kts
29-Apr-18 11:48 34.536183 -115.440077 12 28989ft 426kts
29-Apr-18 11:50 34.666859 -115.382959 12 28870ft 432kts
29-Apr-18 11:50 34.760045 -115.341695 14 28858ft 434kts
29-Apr-18 11:51 34.872087 -115.290756 12 28859ft 434kts
29-Apr-18 11:52 34.985111 -115.240588 12 28857ft 434kts
29-Apr-18 11:53 35.098706 -115.190322 13 28814ft 437kts
29-Apr-18 11:54 35.207258 -115.139991 24 28795ft 446kts
29-Apr-18 11:55 35.305395 -115.044283 35 28816ft 455kts
29-Apr-18 11:56 35.407719 -114.956306 27 28818ft 450kts
29-Apr-18 11:57 35.512305 -114.872308 26 28819ft 452kts
29-Apr-18 11:58 35.617178 -114.787998 26 28829ft 453kts
29-Apr-18 11:59 35.728524 -114.754223 330 28850ft 399kts
29-Apr-18 12:00 35.829133 -114.808639 334 28826ft 406kts
29-Apr-18 12:01 35.938920 -114.841815 350 28814ft 424kts
29-Apr-18 12:02 36.050333 -114.777984 23 28830ft 457kts
29-Apr-18 12:03 36.158871 -114.711436 14 28827ft 450kts
29-Apr-18 12:04 36.274695 -114.654704 23 28875ft 457kts
29-Apr-18 12:05 36.384394 -114.574078 24 28868ft 460kts
29-Apr-18 12:06 36.494263 -114.491660 25 28869ft 463kts
29-Apr-18 12:07 36.603744 -114.408594 26 28871ft 465kts
29-Apr-18 12:08 36.711356 -114.323092 27 28798ft 469kts
29-Apr-18 12:09 36.820713 -114.236501 27 28797ft 468kts
29-Apr-18 12:10 36.930836 -114.150268 26 28799ft 469kts
29-Apr-18 12:11 37.041268 -114.063620 26 28801ft 470kts
29-Apr-18 12:12 37.148622 -113.979660 26 28796ft 470kts
29-Apr-18 12:13 37.258886 -113.892974 27 28797ft 471kts
29-Apr-18 12:14 37.369683 -113.805207 27 28800ft 472kts
29-Apr-18 12:15 37.480383 -113.717151 27 28802ft 473kts
29-Apr-18 12:16 37.591333 -113.628564 27 28865ft 473kts
29-Apr-18 12:17 37.702242 -113.539660 27 28888ft 474kts
29-Apr-18 12:18 37.813623 -113.450116 27 28891ft 477kts
29-Apr-18 12:19 37.925843 -113.360410 22 28886ft 477kts
29-Apr-18 12:20 38.036740 -113.277598 27 28882ft 480kts
29-Apr-18 12:21 38.141562 -113.193147 28 28829ft 481kts
29-Apr-18 12:22 38.253323 -113.101755 28 28831ft 481kts
29-Apr-18 12:23 38.365642 -113.008972 29 28833ft 482kts
29-Apr-18 12:24 38.483693 -112.938015 8 28834ft 468kts
29-Apr-18 12:25 38.606621 -112.879725 17 28839ft 476kts
29-Apr-18 12:26 38.724861 -112.815068 17 28840ft 477kts
29-Apr-18 12:27 38.846791 -112.748256 17 28842ft 479kts
29-Apr-18 12:28 38.968901 -112.681114 17 28881ft 480kts
29-Apr-18 12:29 39.091587 -112.613408 17 28883ft 482kts
29-Apr-18 12:30 39.181354 -112.564171 17 28873ft 482kts
29-Apr-18 12:31 39.299063 -112.499016 15 28874ft 482kts
29-Apr-18 12:32 39.420984 -112.457284 359 28498ft 427kts
29-Apr-18 12:33 39.536891 -112.428838 4 26680ft 420kts
29-Apr-18 12:34 39.648033 -112.394361 6 25023ft 406kts
29-Apr-18 12:35 39.755678 -112.359452 6 23396ft 392kts
29-Apr-18 12:36 39.855385 -112.325761 8 21465ft 377kts
29-Apr-18 12:37 39.954836 -112.292742 9 19328ft 364kts
29-Apr-18 12:38 40.050890 -112.261158 10 17332ft 352kts
29-Apr-18 12:39 40.136236 -112.221073 45 15861ft 352kts
29-Apr-18 12:40 40.197468 -112.125694 51 14424ft 339kts
29-Apr-18 12:41 40.256461 -112.033081 51 13037ft 325kts
29-Apr-18 12:42 40.313355 -111.944883 40 11729ft 311kts
29-Apr-18 12:43 40.394136 -111.936096 351 10371ft 297kts
29-Apr-18 12:44 40.474700 -111.943523 359 9054ft 288kts
29-Apr-18 12:45 40.552694 -111.947986 354 8009ft 268kts
29-Apr-18 12:46 40.622229 -111.955489 353 7262ft 243kts
29-Apr-18 12:47 40.684170 -111.962645 353 6075ft 199kts
29-Apr-18 12:48 40.730184 -111.967868 352 5103ft 138kts
29-Apr-18 12:49 40.768269 -111.972361 352 4404ft 135kts
29-Apr-18 12:50 40.794816 -111.975490 354 4236ft 65kts
29-Apr-18 12:51 40.795591 -111.977742 175 4236ft 12kts
29-Apr-18 12:52 40.792683 -111.977408 174 4236ft 12kts
29-Apr-18 12:53 40.790219 -111.978747 265 4236ft 12kts
29-Apr-18 12:54 40.789216 -111.981176 194 4236ft 0kts
29-Apr-18 12:55 40.789216 -111.981176 194 4236ft 0kts
29-Apr-18 12:56 40.789216 -111.981176 194 4236ft 0kts
29-Apr-18 12:57 40.789216 -111.981176 194 4236ft 0kts
29-Apr-18 12:58 40.789216 -111.981176 194 4236ft 0kts
29-Apr-18 12:59 40.789216 -111.981176 194 4236ft 0kts
29-Apr-18 13:00 40.789216 -111.981176 194 4236ft 0kts
29-Apr-18 13:01 40.789216 -111.981176 194 4236ft 0kts
29-Apr-18 13:02 40.789216 -111.981176 194 4236ft 0kts
29-Apr-18 13:03 40.789216 -111.981176 194 4236ft 0kts
29-Apr-18 13:04 40.789216 -111.981176 194 4236ft 0kts
29-Apr-18 13:05 40.789216 -111.981176 194 4236ft 0kts

Navigation Log

Ident Type
Flight plan parsing failed, navigation log unavailable